Susquehanna — WDD9976 — position and weather

sailwx.info

Track history (hours):
 
Tides and Currents Weather Stations Pressure Air Temp Water Temp Dewpoint Dewpoint Depression Visibility Wind Speed Wind Dir Waves Ship Positions

Susquehanna

Owner: Vane Line Bunkering, Inc., Baltimore, MD. More information available from US FCC via Universal Licensing System and Coast Guard Vessel Documentation Center.

Last reported at 2016-May-24 21:34 UTC. Time now 2016-May-25 16:53 UTC.
Position N 27°02' W 079°58'.

Length 28 m; draft 4.2 m.

Type: Tug. MMSI: 367318750.

Date/timePositionNaut miles runAvg speedWind from/ knotsBaromVisibWave heightAir tempDewpointWater temp
2016-May-24 21:34N 27°02' W 079°58'1111.0
2016-May-24 20:34N 26°51' W 079°57'1312.3
2016-May-24 19:29N 26°38' W 079°57'1112.1
2016-May-24 18:33N 26°26' W 079°58'1212.3
2016-May-24 17:34N 26°14' W 079°59'1312.6
2016-May-24 16:33N 26°02' W 079°59'1211.8
2016-May-24 15:34N 25°50' W 080°01'1111.4
2016-May-24 14:34N 25°38' W 080°01'185 4.3
2016-May-22 19:33N 27°46' W 082°31'4 4.5
2016-May-22 18:33N 27°50' W 082°34'2 0.7
2016-May-22 15:33N 27°52' W 082°33'0 0.0
2016-May-22 14:33N 27°52' W 082°33'0 0.0
2016-May-22 13:31N 27°52' W 082°33'0 0.0
2016-May-22 12:32N 27°52' W 082°33'0 0.0
2016-May-22 11:32N 27°52' W 082°33'0 0.0
2016-May-22 10:33N 27°52' W 082°33'0 0.0
2016-May-22 09:31N 27°52' W 082°33'0 0.0
2016-May-22 08:31N 27°52' W 082°33'0 0.0
2016-May-22 07:32N 27°52' W 082°33'0 0.0
2016-May-22 06:33N 27°52' W 082°33'0 0.0
2016-May-22 05:33N 27°52' W 082°33'0 0.0
2016-May-22 04:31N 27°52' W 082°33'0 0.0
2016-May-22 03:29N 27°52' W 082°33'0 0.0
2016-May-22 02:32N 27°52' W 082°33'0 0.0
2016-May-22 01:33N 27°52' W 082°33'0 0.0
2016-May-22 00:31N 27°52' W 082°33'0 0.0
2016-May-21 23:31N 27°52' W 082°33'0 0.0
2016-May-21 22:32N 27°52' W 082°33'0 0.0
2016-May-21 21:33N 27°52' W 082°33'0 0.0
2016-May-21 20:33N 27°52' W 082°33'0 0.0
2016-May-21 19:31N 27°52' W 082°33'0 0.0
2016-May-21 18:32N 27°52' W 082°33'0 0.0
2016-May-21 17:32N 27°52' W 082°33'0 0.0
2016-May-21 16:33N 27°52' W 082°33'0 0.0
2016-May-21 15:31N 27°52' W 082°33'0 0.3
2016-May-21 14:34N 27°51' W 082°33'6 5.8
2016-May-21 13:34N 27°46' W 082°31'8 7.9
2016-May-21 12:32N 27°39' W 082°37'35 6.4
2016-May-21 07:07N 27°38' W 083°16'  
2016-May-18 20:16N 29°51' W 089°59'5 6.0
2016-May-18 19:22N 29°55' W 089°56'5 6.3
2016-May-18 18:34N 29°57' W 090°01'0 0.0
2016-May-18 17:34N 29°57' W 090°01'0 0.0
2016-May-18 16:34N 29°57' W 090°01'0 0.0
2016-May-18 15:34N 29°57' W 090°01'0 0.0
2016-May-18 14:33N 29°57' W 090°01'0 0.0
2016-May-18 13:33N 29°57' W 090°01'0 0.0
2016-May-18 12:34N 29°57' W 090°01'0 0.0
2016-May-18 11:34N 29°57' W 090°01'0 0.0
2016-May-18 10:34N 29°57' W 090°01'0 0.0
2016-May-18 09:33N 29°57' W 090°01'0 0.0
2016-May-18 08:34N 29°57' W 090°01'0 0.0
2016-May-18 07:33N 29°57' W 090°01'0 0.0
2016-May-18 06:34N 29°57' W 090°01'0 0.0
2016-May-18 05:33N 29°57' W 090°01'0 0.0
2016-May-18 04:33N 29°57' W 090°01'0 0.0
2016-May-18 03:33N 29°57' W 090°01'0 0.0
2016-May-18 02:34N 29°57' W 090°01'0 0.0
2016-May-18 01:34N 29°57' W 090°01'1 0.6
2016-May-18 00:34N 29°57' W 090°02'7 6.8
2016-May-17 23:33N 29°57' W 090°10'  
2016-May-15 16:20N 29°56' W 090°12'3 4.0
2016-May-15 15:33N 29°55' W 090°08'5 5.4
2016-May-15 14:33N 29°57' W 090°03'2 2.4
2016-May-15 13:33N 29°56' W 090°00'6 4.5
2016-May-15 12:20N 29°52' W 089°56'4 5.2
2016-May-15 11:33N 29°50' W 089°60'7 6.3
2016-May-15 10:29N 29°43' W 089°59'  
Track history (hours):
 
Tides and Currents Weather Stations Pressure Air Temp Water Temp Dewpoint Dewpoint Depression Visibility Wind Speed Wind Dir Waves Ship Positions

Susquehanna

Owner: Vane Line Bunkering, Inc., Baltimore, MD. More information available from US FCC via Universal Licensing System and Coast Guard Vessel Documentation Center.

Last reported at 2016-May-24 21:34 UTC. Time now 2016-May-25 16:53 UTC.
Position N 27°02' W 079°58'.

Length 28 m; draft 4.2 m.

Type: Tug. MMSI: 367318750.

Date/timePositionNaut miles runAvg speedWind from/ knotsBaromVisibWave heightAir tempDewpointWater temp
2016-May-24 21:34N 27°02' W 079°58'1111.0
2016-May-24 20:34N 26°51' W 079°57'1312.3
2016-May-24 19:29N 26°38' W 079°57'1112.1
2016-May-24 18:33N 26°26' W 079°58'1212.3
2016-May-24 17:34N 26°14' W 079°59'1312.6
2016-May-24 16:33N 26°02' W 079°59'1211.8
2016-May-24 15:34N 25°50' W 080°01'1111.4
2016-May-24 14:34N 25°38' W 080°01'185 4.3
2016-May-22 19:33N 27°46' W 082°31'4 4.5
2016-May-22 18:33N 27°50' W 082°34'2 0.7
2016-May-22 15:33N 27°52' W 082°33'0 0.0
2016-May-22 14:33N 27°52' W 082°33'0 0.0
2016-May-22 13:31N 27°52' W 082°33'0 0.0
2016-May-22 12:32N 27°52' W 082°33'0 0.0
2016-May-22 11:32N 27°52' W 082°33'0 0.0
2016-May-22 10:33N 27°52' W 082°33'0 0.0
2016-May-22 09:31N 27°52' W 082°33'0 0.0
2016-May-22 08:31N 27°52' W 082°33'0 0.0
2016-May-22 07:32N 27°52' W 082°33'0 0.0
2016-May-22 06:33N 27°52' W 082°33'0 0.0
2016-May-22 05:33N 27°52' W 082°33'0 0.0
2016-May-22 04:31N 27°52' W 082°33'0 0.0
2016-May-22 03:29N 27°52' W 082°33'0 0.0
2016-May-22 02:32N 27°52' W 082°33'0 0.0
2016-May-22 01:33N 27°52' W 082°33'0 0.0
2016-May-22 00:31N 27°52' W 082°33'0 0.0
2016-May-21 23:31N 27°52' W 082°33'0 0.0
2016-May-21 22:32N 27°52' W 082°33'0 0.0
2016-May-21 21:33N 27°52' W 082°33'0 0.0
2016-May-21 20:33N 27°52' W 082°33'0 0.0
2016-May-21 19:31N 27°52' W 082°33'0 0.0
2016-May-21 18:32N 27°52' W 082°33'0 0.0
2016-May-21 17:32N 27°52' W 082°33'0 0.0
2016-May-21 16:33N 27°52' W 082°33'0 0.0
2016-May-21 15:31N 27°52' W 082°33'0 0.3
2016-May-21 14:34N 27°51' W 082°33'6 5.8
2016-May-21 13:34N 27°46' W 082°31'8 7.9
2016-May-21 12:32N 27°39' W 082°37'35 6.4
2016-May-21 07:07N 27°38' W 083°16'  
2016-May-18 20:16N 29°51' W 089°59'5 6.0
2016-May-18 19:22N 29°55' W 089°56'5 6.3
2016-May-18 18:34N 29°57' W 090°01'0 0.0
2016-May-18 17:34N 29°57' W 090°01'0 0.0
2016-May-18 16:34N 29°57' W 090°01'0 0.0
2016-May-18 15:34N 29°57' W 090°01'0 0.0
2016-May-18 14:33N 29°57' W 090°01'0 0.0
2016-May-18 13:33N 29°57' W 090°01'0 0.0
2016-May-18 12:34N 29°57' W 090°01'0 0.0
2016-May-18 11:34N 29°57' W 090°01'0 0.0
2016-May-18 10:34N 29°57' W 090°01'0 0.0
2016-May-18 09:33N 29°57' W 090°01'0 0.0
2016-May-18 08:34N 29°57' W 090°01'0 0.0
2016-May-18 07:33N 29°57' W 090°01'0 0.0
2016-May-18 06:34N 29°57' W 090°01'0 0.0
2016-May-18 05:33N 29°57' W 090°01'0 0.0
2016-May-18 04:33N 29°57' W 090°01'0 0.0
2016-May-18 03:33N 29°57' W 090°01'0 0.0
2016-May-18 02:34N 29°57' W 090°01'0 0.0
2016-May-18 01:34N 29°57' W 090°01'1 0.6
2016-May-18 00:34N 29°57' W 090°02'7 6.8
2016-May-17 23:33N 29°57' W 090°10'  
2016-May-15 16:20N 29°56' W 090°12'3 4.0
2016-May-15 15:33N 29°55' W 090°08'5 5.4
2016-May-15 14:33N 29°57' W 090°03'2 2.4
2016-May-15 13:33N 29°56' W 090°00'6 4.5
2016-May-15 12:20N 29°52' W 089°56'4 5.2
2016-May-15 11:33N 29°50' W 089°60'7 6.3
2016-May-15 10:29N 29°43' W 089°59'  

Dump ship's entire track history